Time;durP1;ratioP1;P1;durP2;ratioP2;P2;SDS_P1;SDS_P2;PMS_P1;PMS_P2;Temp;Humidity;BMP_temperature;BMP_pressure;BME280_temperature;BME280_humidity;BME280_pressure;Samples;Min_cycle;Max_cycle;Signal;HPM_P1;HPM_P2
2021/09/08 00:01:40;;;;;;;22.15;17.17;;;;;;;17.65;71.77;102053.63;4977830;28;20034;-81
2021/09/08 00:04:05;;;;;;;23.60;17.17;;;;;;;17.61;71.98;102046.78;5008337;28;20257;-81
2021/09/08 00:06:30;;;;;;;21.02;16.55;;;;;;;17.60;71.77;102050.38;4990436;28;20050;-81
2021/09/08 00:08:56;;;;;;;23.58;17.08;;;;;;;17.55;71.91;102038.28;5007039;28;20044;-81
2021/09/08 00:11:21;;;;;;;20.70;16.48;;;;;;;17.55;71.85;102040.94;5019603;28;20360;-81
2021/09/08 00:13:47;;;;;;;23.05;16.33;;;;;;;17.65;71.56;102037.75;5010086;28;20022;-81
2021/09/08 00:16:13;;;;;;;23.77;17.52;;;;;;;17.54;71.56;102026.84;4983245;28;20029;-80
2021/09/08 00:18:39;;;;;;;29.40;18.27;;;;;;;17.43;72.48;102029.19;4990151;28;20325;-81
2021/09/08 00:21:04;;;;;;;27.48;18.30;;;;;;;17.11;74.24;102018.41;5002896;28;20041;-81
2021/09/08 00:23:30;;;;;;;23.92;18.17;;;;;;;16.92;74.94;102023.75;4987567;28;20030;-81
2021/09/08 00:25:55;;;;;;;28.40;18.60;;;;;;;16.78;75.85;102013.81;4989632;28;20216;-81
2021/09/08 00:28:21;;;;;;;24.13;18.70;;;;;;;16.67;76.77;102011.66;5005198;28;20045;-81
2021/09/08 00:30:46;;;;;;;27.15;19.33;;;;;;;16.58;76.77;102012.13;5004020;28;20046;-81
2021/09/08 00:33:11;;;;;;;26.15;18.77;;;;;;;16.51;76.96;102008.88;5008062;28;20037;-81
2021/09/08 00:35:37;;;;;;;26.55;19.20;;;;;;;16.55;76.61;102006.97;4987863;28;20030;-81
2021/09/08 00:38:02;;;;;;;26.25;19.10;;;;;;;16.49;76.72;102009.91;4991583;28;20022;-80
2021/09/08 00:40:28;;;;;;;24.67;19.25;;;;;;;16.54;76.50;102004.41;4992199;28;20037;-80
2021/09/08 00:42:53;;;;;;;28.65;20.05;;;;;;;16.63;76.07;102002.19;5009705;28;20333;-81
2021/09/08 00:45:19;;;;;;;29.35;19.10;;;;;;;16.77;75.60;102005.94;4990477;28;20046;-80
2021/09/08 00:47:44;;;;;;;30.10;19.70;;;;;;;16.81;75.53;101999.59;4989989;28;20026;-81
2021/09/08 00:50:10;;;;;;;27.92;19.40;;;;;;;16.72;75.60;101995.59;5006011;28;20059;-81
2021/09/08 00:52:38;;;;;;;26.77;19.63;;;;;;;16.65;75.78;101994.19;5001380;28;20038;-81
2021/09/08 00:55:05;;;;;;;28.13;20.20;;;;;;;16.57;76.48;101986.63;4990060;28;20022;-81
2021/09/08 00:57:30;;;;;;;28.77;20.73;;;;;;;16.68;75.92;101992.25;5007873;28;20032;-80
2021/09/08 00:59:56;;;;;;;30.10;20.40;;;;;;;16.66;76.34;101985.28;4999330;28;20025;-81
2021/09/08 01:02:21;;;;;;;29.70;20.50;;;;;;;16.69;76.03;101986.00;5006461;28;20057;-80
2021/09/08 01:04:47;;;;;;;28.73;20.20;;;;;;;16.66;76.23;101983.53;4992085;28;20041;-79
2021/09/08 01:07:12;;;;;;;31.58;20.55;;;;;;;16.63;76.56;101975.72;5002071;28;20034;-80
2021/09/08 01:09:38;;;;;;;34.97;20.40;;;;;;;16.53;77.22;101970.94;5018916;28;20058;-80
2021/09/08 01:12:03;;;;;;;28.55;20.52;;;;;;;16.44;77.33;101969.59;4995357;28;20022;-80
2021/09/08 01:14:29;;;;;;;29.98;21.00;;;;;;;16.44;77.29;101972.25;5005861;28;20057;-80
2021/09/08 01:16:55;;;;;;;28.80;21.67;;;;;;;16.14;78.77;101967.47;4984196;28;20037;-80
2021/09/08 01:19:21;;;;;;;30.13;22.40;;;;;;;16.11;78.95;101971.09;4984831;28;20030;-80
2021/09/08 01:21:46;;;;;;;31.55;22.67;;;;;;;15.97;79.68;101964.72;4983376;28;20037;-80
2021/09/08 01:24:12;;;;;;;34.58;22.45;;;;;;;16.03;79.27;101964.47;4989682;28;20029;-81
2021/09/08 01:26:38;;;;;;;29.38;21.08;;;;;;;15.98;79.26;101964.66;5005337;28;20030;-81
2021/09/08 01:29:04;;;;;;;31.30;22.63;;;;;;;16.12;78.29;101964.03;4991780;28;20222;-81
2021/09/08 01:31:29;;;;;;;29.98;22.27;;;;;;;16.16;78.01;101965.63;5006543;28;20033;-80
2021/09/08 01:33:55;;;;;;;34.55;22.33;;;;;;;16.33;77.26;101963.97;4992333;28;20096;-80
2021/09/08 01:36:20;;;;;;;32.00;20.98;;;;;;;16.39;76.75;101963.66;5005264;28;20038;-80
2021/09/08 01:38:45;;;;;;;30.33;21.40;;;;;;;16.35;77.08;101964.75;4974226;28;20026;-80
2021/09/08 01:41:14;;;;;;;32.15;21.45;;;;;;;16.51;75.98;101963.09;5005593;28;20038;-80
2021/09/08 01:43:39;;;;;;;31.05;21.83;;;;;;;16.47;76.49;101965.03;4989493;28;20352;-81
2021/09/08 01:46:04;;;;;;;27.73;20.67;;;;;;;16.41;76.81;101967.09;4988476;28;20097;-80
2021/09/08 01:48:30;;;;;;;27.35;20.85;;;;;;;16.39;76.49;101959.25;5003405;28;20030;-80
2021/09/08 01:50:55;;;;;;;30.15;21.42;;;;;;;16.51;76.58;101960.44;4989074;28;20225;-82
2021/09/08 01:53:22;;;;;;;30.63;21.52;;;;;;;16.58;76.25;101963.66;4984173;28;20057;-81
2021/09/08 01:55:48;;;;;;;32.15;22.50;;;;;;;16.72;75.85;101960.34;5000706;28;20109;-82
2021/09/08 01:58:13;;;;;;;31.20;23.00;;;;;;;16.64;76.45;101956.25;5019368;28;20049;-81
2021/09/08 02:00:39;;;;;;;29.45;21.80;;;;;;;16.55;76.93;101958.50;5025040;28;20145;-81
2021/09/08 02:03:04;;;;;;;35.15;23.05;;;;;;;16.44;77.10;101956.38;5009339;28;20045;-80
2021/09/08 02:05:30;;;;;;;30.60;22.70;;;;;;;16.33;77.50;101961.31;4984199;28;20085;-81
2021/09/08 02:07:55;;;;;;;29.27;22.20;;;;;;;16.19;77.73;101954.03;4988734;28;20048;-80
2021/09/08 02:10:20;;;;;;;30.85;22.20;;;;;;;16.17;77.72;101953.25;4975274;28;20052;-80
2021/09/08 02:12:46;;;;;;;32.03;22.27;;;;;;;16.17;77.64;101948.84;5000404;28;20069;-80
2021/09/08 02:15:14;;;;;;;35.05;22.85;;;;;;;16.23;77.08;101945.91;5006386;28;20050;-80
2021/09/08 02:17:40;;;;;;;30.83;22.87;;;;;;;16.26;76.74;101948.41;5013467;28;20061;-80
2021/09/08 02:20:06;;;;;;;31.13;22.50;;;;;;;16.22;76.99;101944.16;4994491;28;20281;-81
2021/09/08 02:22:31;;;;;;;31.90;22.20;;;;;;;16.20;77.10;101950.47;4973806;28;20129;-81
2021/09/08 02:24:57;;;;;;;36.50;23.10;;;;;;;16.18;77.71;101952.34;5016336;28;20263;-80
2021/09/08 02:27:24;;;;;;;35.53;22.85;;;;;;;16.23;77.17;101942.41;5006974;28;20026;-81
2021/09/08 02:29:50;;;;;;;35.95;23.33;;;;;;;16.18;77.49;101945.25;5023482;28;20048;-81
2021/09/08 02:32:16;;;;;;;31.25;21.80;;;;;;;16.25;77.11;101938.75;4987818;28;20034;-81
2021/09/08 02:34:41;;;;;;;27.83;22.42;;;;;;;16.18;77.77;101947.91;5015561;28;20336;-80
2021/09/08 02:37:06;;;;;;;32.70;22.85;;;;;;;16.35;76.96;101948.88;5012568;28;20057;-80
2021/09/08 02:39:34;;;;;;;30.35;21.60;;;;;;;16.41;76.46;101946.81;5014147;28;20051;-80
2021/09/08 02:41:59;;;;;;;28.30;21.08;;;;;;;16.33;76.66;101951.59;4992662;28;20026;-80
2021/09/08 02:44:25;;;;;;;36.25;22.08;;;;;;;16.34;77.18;101948.03;4972295;28;20222;-80
2021/09/08 02:46:50;;;;;;;31.05;22.00;;;;;;;16.29;77.41;101950.03;4998855;28;20344;-80
2021/09/08 02:49:16;;;;;;;28.58;21.80;;;;;;;16.18;77.75;101947.91;5004106;28;20046;-80
2021/09/08 02:51:41;;;;;;;26.70;21.50;;;;;;;16.08;77.87;101941.31;4970205;28;20030;-80
2021/09/08 02:54:07;;;;;;;29.65;21.58;;;;;;;16.22;77.51;101938.03;4997057;28;20194;-80
2021/09/08 02:56:32;;;;;;;30.98;22.20;;;;;;;16.31;76.89;101942.88;5004281;28;20053;-81
2021/09/08 02:58:58;;;;;;;34.47;21.13;;;;;;;16.28;77.02;101937.72;5009492;28;20026;-81
2021/09/08 03:01:23;;;;;;;28.13;21.92;;;;;;;16.09;78.00;101930.69;5001189;28;20022;-81
2021/09/08 03:03:49;;;;;;;29.23;21.83;;;;;;;16.02;78.24;101928.41;5012176;28;20096;-81
2021/09/08 03:06:14;;;;;;;31.27;22.25;;;;;;;15.88;78.77;101931.66;5014755;28;20036;-81
2021/09/08 03:08:40;;;;;;;32.83;22.55;;;;;;;15.80;78.93;101928.53;5010057;28;20030;-81
2021/09/08 03:11:06;;;;;;;30.95;22.10;;;;;;;15.81;78.88;101928.47;4988309;28;20042;-81
2021/09/08 03:13:32;;;;;;;32.17;21.98;;;;;;;15.79;78.81;101924.16;4995597;28;20241;-80
2021/09/08 03:15:57;;;;;;;30.25;22.25;;;;;;;15.71;79.05;101924.47;4985316;28;20030;-80
2021/09/08 03:18:23;;;;;;;32.75;22.23;;;;;;;15.80;78.75;101924.09;5019103;28;20045;-81
2021/09/08 03:20:48;;;;;;;32.30;21.77;;;;;;;15.74;78.41;101908.53;5004958;28;20029;-80
2021/09/08 03:23:14;;;;;;;30.15;21.13;;;;;;;15.74;78.45;101919.94;4987735;28;20052;-81
2021/09/08 03:25:39;;;;;;;29.70;21.73;;;;;;;15.69;78.80;101913.97;4996871;28;20036;-82
2021/09/08 03:28:06;;;;;;;34.30;22.23;;;;;;;15.52;79.33;101917.38;5003806;28;20022;-81
2021/09/08 03:30:32;;;;;;;31.50;22.70;;;;;;;15.44;79.82;101911.56;4988091;28;20038;-81
2021/09/08 03:32:57;;;;;;;32.60;22.88;;;;;;;15.45;79.77;101915.09;5022815;28;20357;-81
2021/09/08 03:35:22;;;;;;;33.72;23.13;;;;;;;15.47;79.86;101913.22;5008482;28;20032;-80
2021/09/08 03:37:48;;;;;;;36.15;22.90;;;;;;;15.40;80.11;101906.50;5019575;28;20041;-80
2021/09/08 03:40:14;;;;;;;36.28;22.98;;;;;;;15.34;80.24;101903.22;5029951;28;20324;-80
2021/09/08 03:42:40;;;;;;;31.30;24.00;;;;;;;15.34;80.71;101905.84;5020317;28;20759;-80
2021/09/08 03:45:10;;;;;;;36.33;24.00;;;;;;;15.45;79.64;101905.38;4992575;28;20097;-80
2021/09/08 03:47:35;;;;;;;37.90;24.27;;;;;;;15.40;80.14;101895.94;4979085;28;20186;-81
2021/09/08 03:50:01;;;;;;;31.45;23.45;;;;;;;15.41;79.84;101903.81;5008468;28;20045;-80
2021/09/08 03:52:26;;;;;;;31.23;23.73;;;;;;;15.36;79.77;101896.06;5016959;28;20333;-80
2021/09/08 03:54:52;;;;;;;34.13;23.85;;;;;;;15.33;79.89;101885.69;5020588;28;20033;-81
2021/09/08 03:57:17;;;;;;;34.53;24.55;;;;;;;15.41;79.29;101885.31;5013096;28;20042;-81
2021/09/08 03:59:43;;;;;;;33.88;23.75;;;;;;;15.41;79.47;101893.25;5018251;28;20079;-81
2021/09/08 04:02:08;;;;;;;31.38;22.52;;;;;;;15.53;79.43;101886.56;5001556;28;20036;-81
2021/09/08 04:04:33;;;;;;;35.30;22.90;;;;;;;15.42;79.50;101886.19;5033727;28;20079;-81
2021/09/08 04:06:59;;;;;;;34.83;23.75;;;;;;;15.45;79.36;101886.06;4991908;28;20021;-81
2021/09/08 04:09:24;;;;;;;33.58;23.45;;;;;;;15.44;78.86;101884.31;5013316;28;20365;-80
2021/09/08 04:11:50;;;;;;;33.95;24.50;;;;;;;15.45;79.03;101886.06;5027887;28;20036;-81
2021/09/08 04:14:15;;;;;;;35.33;24.10;;;;;;;15.43;79.20;101874.72;5021548;28;20049;-80
2021/09/08 04:16:40;;;;;;;33.33;23.17;;;;;;;15.47;78.90;101871.00;5003124;28;20049;-80
2021/09/08 04:19:06;;;;;;;37.30;23.20;;;;;;;15.47;78.69;101874.47;5022226;28;20029;-80
2021/09/08 04:21:31;;;;;;;31.42;22.55;;;;;;;15.54;78.66;101870.66;4990504;28;20041;-80
2021/09/08 04:23:57;;;;;;;35.65;24.42;;;;;;;15.50;78.73;101877.00;5010060;28;20047;-80
2021/09/08 04:26:22;;;;;;;35.22;23.88;;;;;;;15.51;78.31;101868.13;5027156;28;20044;-81
2021/09/08 04:28:48;;;;;;;35.67;23.42;;;;;;;15.50;78.39;101869.06;4995649;28;20064;-80
2021/09/08 04:31:13;;;;;;;35.95;23.85;;;;;;;15.44;78.80;101871.97;4994560;28;20029;-81
2021/09/08 04:33:39;;;;;;;34.85;24.35;;;;;;;15.39;79.07;101874.00;4994908;28;20075;-81
2021/09/08 04:36:04;;;;;;;34.88;24.48;;;;;;;15.41;78.95;101871.25;5009111;28;20029;-81
2021/09/08 04:38:29;;;;;;;36.70;24.92;;;;;;;15.47;79.13;101869.22;5010113;28;20271;-80
2021/09/08 04:40:55;;;;;;;32.83;22.25;;;;;;;15.44;78.92;101873.75;4981463;28;20091;-80
2021/09/08 04:43:21;;;;;;;29.80;23.05;;;;;;;15.38;79.24;101872.25;4995931;28;20394;-80
2021/09/08 04:45:46;;;;;;;33.45;23.73;;;;;;;15.35;79.31;101868.00;5014993;28;20033;-81
2021/09/08 04:48:12;;;;;;;35.45;24.90;;;;;;;15.32;79.39;101868.13;5002596;28;20080;-80
2021/09/08 04:50:37;;;;;;;30.15;21.77;;;;;;;15.40;79.11;101866.91;5008782;28;20105;-81
2021/09/08 04:53:03;;;;;;;35.83;23.98;;;;;;;15.23;79.52;101872.94;4991172;28;20321;-81
2021/09/08 04:55:28;;;;;;;41.20;24.35;;;;;;;15.22;79.53;101866.78;5015165;28;20034;-81
2021/09/08 04:57:53;;;;;;;14.52;9.45;;;;;;;17.27;82.04;101867.63;4999114;28;20040;-81
2021/09/08 05:00:19;;;;;;;14.90;8.35;;;;;;;19.23;74.30;101865.44;4988221;28;20343;-81
2021/09/08 05:02:44;;;;;;;25.77;9.90;;;;;;;19.09;75.16;101862.75;4991015;28;20038;-81
2021/09/08 05:05:13;;;;;;;19.48;12.13;;;;;;;18.25;71.38;101860.56;5011967;28;20033;-81
2021/09/08 05:07:38;;;;;;;14.40;10.75;;;;;;;18.28;76.04;101871.00;5012492;28;20329;-81
2021/09/08 05:10:04;;;;;;;14.63;11.07;;;;;;;18.59;75.65;101860.34;5017298;28;20016;-80
2021/09/08 05:12:30;;;;;;;17.65;10.45;;;;;;;17.99;70.78;101866.41;5006805;28;20313;-80
2021/09/08 05:14:55;;;;;;;36.35;23.00;;;;;;;17.23;71.25;101852.84;5032887;28;20040;-80
2021/09/08 05:17:21;;;;;;;27.85;17.50;;;;;;;16.45;75.46;101855.00;5014236;28;20039;-80
2021/09/08 05:19:46;;;;;;;16.65;12.25;;;;;;;17.98;78.24;101858.53;5016661;28;20068;-80
2021/09/08 05:22:14;;;;;;;18.08;12.38;;;;;;;17.79;78.33;101853.34;5013768;28;20035;-80
2021/09/08 05:24:40;;;;;;;18.95;12.85;;;;;;;18.70;74.24;101857.06;5012079;28;20021;-80
2021/09/08 05:27:06;;;;;;;29.67;20.40;;;;;;;18.52;69.31;101848.38;5017377;28;20024;-80
2021/09/08 05:29:31;;;;;;;14.70;10.13;;;;;;;19.63;68.62;101848.81;5032135;28;20044;-80
2021/09/08 05:31:56;;;;;;;22.27;12.65;;;;;;;20.28;66.65;101848.22;5002585;28;20036;-80
2021/09/08 05:34:22;;;;;;;33.97;18.25;;;;;;;20.83;63.26;101851.66;5001902;28;20041;-80
2021/09/08 05:36:47;;;;;;;13.85;9.50;;;;;;;21.33;62.56;101849.16;5014528;28;20041;-80
2021/09/08 05:39:13;;;;;;;21.45;14.82;;;;;;;20.38;60.59;101846.66;5000873;28;20038;-80
2021/09/08 05:41:39;;;;;;;14.80;9.63;;;;;;;20.94;63.41;101843.81;5016904;28;20220;-80
2021/09/08 05:44:04;;;;;;;31.63;23.25;;;;;;;18.45;66.15;101848.81;5034647;28;20041;-80
2021/09/08 05:46:30;;;;;;;31.90;22.27;;;;;;;17.74;68.52;101837.72;4996336;28;20096;-82
2021/09/08 05:48:55;;;;;;;37.03;23.73;;;;;;;17.70;69.36;101846.78;5018385;28;20049;-80
2021/09/08 05:51:21;;;;;;;17.90;14.20;;;;;;;19.70;65.90;101837.72;5021939;28;20049;-80
2021/09/08 05:53:46;;;;;;;15.38;10.25;;;;;;;20.70;63.54;101839.22;4986732;28;20046;-80
2021/09/08 05:56:11;;;;;;;13.45;9.85;;;;;;;21.23;61.91;101832.97;4986336;28;20037;-80
2021/09/08 05:58:37;;;;;;;26.40;16.60;;;;;;;21.20;59.92;101839.34;4972353;28;20336;-81
2021/09/08 06:01:02;;;;;;;28.10;14.27;;;;;;;21.77;59.50;101842.47;5025197;28;20029;-81
2021/09/08 06:03:28;;;;;;;25.52;19.70;;;;;;;20.47;60.06;101835.41;4991122;28;20057;-80
2021/09/08 06:05:53;;;;;;;27.63;21.27;;;;;;;20.05;61.07;101836.44;5016107;28;20059;-80
2021/09/08 06:08:18;;;;;;;30.45;21.05;;;;;;;20.70;60.38;101833.03;4988664;28;20028;-79
2021/09/08 06:10:44;;;;;;;30.85;23.00;;;;;;;19.71;61.89;101834.09;5028382;28;20033;-80
2021/09/08 06:13:09;;;;;;;30.13;22.63;;;;;;;19.46;63.84;101839.25;5004526;28;20356;-80
2021/09/08 06:15:35;;;;;;;30.92;19.60;;;;;;;20.17;61.35;101827.63;5023108;28;20037;-81
2021/09/08 06:18:02;;;;;;;30.77;19.77;;;;;;;20.55;60.46;101836.69;4999918;28;20431;-80
2021/09/08 06:20:29;;;;;;;29.50;22.30;;;;;;;19.59;63.16;101831.34;5017940;28;20061;-80
2021/09/08 06:22:54;;;;;;;28.25;21.85;;;;;;;20.17;61.63;101829.44;5008607;28;20044;-81
2021/09/08 06:25:20;;;;;;;33.65;23.17;;;;;;;19.66;62.79;101832.69;5004321;28;20029;-80
2021/09/08 06:27:47;;;;;;;31.20;22.33;;;;;;;19.48;63.81;101834.69;5026530;28;20055;-81
2021/09/08 06:30:12;;;;;;;33.28;23.48;;;;;;;19.66;63.06;101833.53;4990384;28;20064;-81
2021/09/08 06:32:38;;;;;;;26.23;20.10;;;;;;;20.53;61.08;101834.97;5024477;28;20295;-80
2021/09/08 06:35:03;;;;;;;25.45;19.45;;;;;;;20.48;61.66;101829.13;5013763;28;20033;-81
2021/09/08 06:37:29;;;;;;;28.17;21.23;;;;;;;20.74;59.59;101831.88;5008656;28;20026;-82
2021/09/08 06:39:54;;;;;;;26.67;19.98;;;;;;;20.98;58.85;101825.84;4984431;28;20065;-81
2021/09/08 06:42:20;;;;;;;28.67;21.88;;;;;;;20.93;59.62;101825.28;5015081;28;20037;-81
2021/09/08 06:44:49;;;;;;;35.58;21.40;;;;;;;21.80;57.64;101836.94;5009656;28;20123;-80
2021/09/08 06:47:15;;;;;;;31.05;21.65;;;;;;;21.03;58.93;101821.03;4999485;28;20033;-83
2021/09/08 06:49:41;;;;;;;24.38;19.42;;;;;;;22.51;55.32;101815.72;4992528;28;20047;-81
2021/09/08 06:52:06;;;;;;;29.05;22.42;;;;;;;20.40;60.61;101812.81;5013022;28;20047;-81
2021/09/08 06:54:31;;;;;;;30.70;21.45;;;;;;;21.42;57.86;101808.53;5001395;28;20041;-82
2021/09/08 06:56:57;;;;;;;27.88;19.90;;;;;;;21.44;57.55;101803.94;5007636;28;20037;-78
2021/09/08 06:59:22;;;;;;;26.33;21.63;;;;;;;21.58;56.45;101817.16;5028053;28;20044;-80
2021/09/08 07:01:48;;;;;;;26.08;20.88;;;;;;;21.37;58.13;101805.34;4990877;28;20132;-81
2021/09/08 07:04:14;;;;;;;28.75;20.58;;;;;;;21.50;57.60;101808.00;5016598;28;20057;-80
2021/09/08 07:06:39;;;;;;;30.92;21.80;;;;;;;21.81;57.30;101809.28;4988879;28;20321;-80
2021/09/08 07:09:05;;;;;;;28.42;22.80;;;;;;;21.41;57.71;101805.03;5028250;28;20017;-80
2021/09/08 07:11:30;;;;;;;24.52;20.30;;;;;;;21.48;57.80;101800.13;4996799;28;20770;-80
2021/09/08 07:13:56;;;;;;;29.77;20.60;;;;;;;22.53;55.18;101800.44;5023714;28;20363;-80
2021/09/08 07:16:21;;;;;;;26.52;20.42;;;;;;;21.70;57.64;101804.75;5006543;28;20048;-79
2021/09/08 07:18:47;;;;;;;27.02;21.17;;;;;;;21.95;57.89;101802.97;5009971;28;20316;-81
2021/09/08 07:21:12;;;;;;;29.20;22.80;;;;;;;22.74;54.16;101801.47;5007783;28;20328;-79
2021/09/08 07:23:37;;;;;;;27.08;20.77;;;;;;;22.07;55.77;101795.88;5017637;28;20112;-81
2021/09/08 07:26:03;;;;;;;30.33;22.02;;;;;;;22.10;55.96;101796.47;4996057;28;20029;-80
2021/09/08 07:28:28;;;;;;;33.92;22.10;;;;;;;22.93;53.95;101789.34;4985309;28;20054;-80
2021/09/08 07:30:57;;;;;;;33.38;19.88;;;;;;;23.41;52.45;101793.63;5008774;28;20033;-80
2021/09/08 07:33:22;;;;;;;;;;;;;;;23.21;52.79;101790.72;5007754;28;20052;-80
2021/09/08 07:35:48;;;;;;;33.78;23.02;;;;;;;22.21;55.74;101790.34;5015345;28;19909;-81
2021/09/08 07:38:14;;;;;;;27.88;20.23;;;;;;;23.32;54.02;101782.72;5030409;28;20029;-80
2021/09/08 07:40:40;;;;;;;26.08;20.85;;;;;;;23.36;52.95;101781.50;5025091;28;20033;-80
2021/09/08 07:43:05;;;;;;;36.53;21.10;;;;;;;23.03;53.27;101794.81;4988935;28;20045;-81
2021/09/08 07:45:31;;;;;;;24.50;20.92;;;;;;;22.59;54.45;101778.59;5018147;28;20063;-81
2021/09/08 07:47:56;;;;;;;27.65;22.35;;;;;;;21.94;56.44;101777.25;5002477;28;20046;-81
2021/09/08 07:50:21;;;;;;;27.48;20.90;;;;;;;22.22;56.17;101778.72;4993559;28;20089;-80
2021/09/08 07:52:47;;;;;;;29.15;22.58;;;;;;;21.93;57.10;101784.41;4983197;28;20022;-81
2021/09/08 07:55:13;;;;;;;34.60;21.40;;;;;;;22.52;55.76;101780.91;5031503;28;20044;-80
2021/09/08 07:57:38;;;;;;;28.70;23.05;;;;;;;21.67;58.35;101781.84;5006471;28;20241;-81
2021/09/08 08:00:05;;;;;;;31.50;23.48;;;;;;;22.26;56.89;101774.88;5019693;28;20033;-81
2021/09/08 08:02:49;;;;;;;23.83;19.52;;;;;;;23.24;53.68;101774.44;5013314;28;20300;-84
2021/09/08 08:05:15;;;;;;;31.55;22.38;;;;;;;22.15;56.14;101780.97;5008793;28;20060;-83
2021/09/08 08:07:41;;;;;;;29.85;19.02;;;;;;;23.56;52.93;101781.72;4996907;28;20105;-85
2021/09/08 08:10:07;;;;;;;28.92;19.33;;;;;;;24.05;51.03;101776.84;4994521;28;20038;-84
2021/09/08 08:12:33;;;;;;;32.38;22.00;;;;;;;23.13;53.47;101775.31;4991419;28;20031;-85
2021/09/08 08:14:58;;;;;;;27.75;18.63;;;;;;;24.06;51.33;101768.69;4995817;28;20360;-84
2021/09/08 08:17:24;;;;;;;28.27;22.08;;;;;;;22.84;53.98;101769.56;4997186;28;20030;-84
2021/09/08 08:19:49;;;;;;;25.08;20.85;;;;;;;23.51;52.96;101776.72;4991087;28;20225;-83
2021/09/08 08:22:15;;;;;;;28.13;21.33;;;;;;;22.89;54.75;101777.22;4994801;28;20321;-84
2021/09/08 08:24:41;;;;;;;25.38;21.17;;;;;;;22.80;54.93;101774.28;5021776;28;20041;-84
2021/09/08 08:27:06;;;;;;;33.67;21.85;;;;;;;24.57;51.72;101772.47;5006083;28;20031;-84
2021/09/08 08:29:32;;;;;;;33.55;21.63;;;;;;;23.94;52.17;101767.06;5014730;28;20050;-83
2021/09/08 08:31:57;;;;;;;30.90;22.63;;;;;;;23.78;52.54;101778.13;4982148;28;20026;-84
2021/09/08 08:34:23;;;;;;;28.50;23.27;;;;;;;23.23;53.37;101769.22;4989202;28;20040;-83
2021/09/08 08:36:48;;;;;;;25.58;22.55;;;;;;;24.04;52.61;101769.81;5003678;28;20049;-83
2021/09/08 08:39:14;;;;;;;27.92;21.40;;;;;;;24.36;51.16;101768.91;5001070;28;20034;-85
2021/09/08 08:41:39;;;;;;;23.42;19.55;;;;;;;24.57;51.08;101771.63;5001511;28;20037;-82
2021/09/08 08:44:04;;;;;;;30.70;22.23;;;;;;;23.49;53.16;101772.50;5027653;28;20025;-78
2021/09/08 08:46:30;;;;;;;24.02;20.92;;;;;;;23.74;53.01;101771.34;5014091;28;20021;-80
2021/09/08 08:48:55;;;;;;;28.05;21.65;;;;;;;23.29;53.54;101766.91;4992820;28;20123;-79
2021/09/08 08:51:21;;;;;;;25.33;22.63;;;;;;;23.92;53.29;101769.00;4981284;28;20037;-79
2021/09/08 08:53:49;;;;;;;27.30;20.23;;;;;;;24.24;51.35;101766.31;5016840;28;20217;-79
2021/09/08 08:56:14;;;;;;;23.13;17.50;;;;;;;24.12;53.64;101765.53;5014396;28;20030;-80
2021/09/08 08:58:40;;;;;;;31.95;21.85;;;;;;;24.07;52.46;101756.19;5000467;28;20022;-78
2021/09/08 09:01:22;;;;;;;26.80;22.33;;;;;;;24.07;51.52;101757.03;5023498;28;20147;-80
2021/09/08 09:04:10;;;;;;;26.65;20.92;;;;;;;23.14;54.44;101757.44;4997224;28;20030;-83
2021/09/08 09:06:39;;;;;;;25.02;20.90;;;;;;;24.39;52.05;101750.75;5016399;28;20037;-83
2021/09/08 09:09:14;;;;;;;28.48;21.02;;;;;;;24.57;51.80;101753.75;4996296;28;20026;-83
2021/09/08 09:11:43;;;;;;;28.55;22.70;;;;;;;23.61;54.15;101757.25;4982663;28;20030;-83
2021/09/08 09:14:09;;;;;;;24.70;20.48;;;;;;;24.36;52.25;101753.72;5014525;28;20098;-83
2021/09/08 09:16:39;;;;;;;25.33;21.15;;;;;;;24.73;51.75;101757.78;4987398;28;20088;-83
2021/09/08 09:19:04;;;;;;;27.00;22.58;;;;;;;24.51;53.34;101748.88;5003900;28;20041;-83
2021/09/08 09:21:30;;;;;;;28.00;21.13;;;;;;;24.84;51.51;101747.81;5008424;28;20030;-80
2021/09/08 09:24:00;;;;;;;27.88;21.20;;;;;;;24.43;52.20;101746.88;5014655;28;20033;-81
2021/09/08 09:26:27;;;;;;;25.98;21.52;;;;;;;24.42;51.98;101745.16;4997391;28;20025;-82
2021/09/08 09:28:53;;;;;;;31.83;22.27;;;;;;;24.76;50.49;101744.09;4995864;28;20045;-81
2021/09/08 09:31:22;;;;;;;22.88;20.45;;;;;;;25.30;50.22;101745.63;5004390;28;20093;-83
2021/09/08 09:33:53;;;;;;;24.58;21.27;;;;;;;25.25;50.52;101743.38;5006778;28;20018;-82
2021/09/08 09:36:22;;;;;;;30.17;21.10;;;;;;;24.57;51.62;101748.38;4999946;28;20049;-82
2021/09/08 09:38:48;;;;;;;30.45;21.58;;;;;;;25.00;50.45;101746.50;5016855;28;20036;-82
2021/09/08 09:41:16;;;;;;;26.38;21.50;;;;;;;24.43;51.52;101740.66;4988587;28;20042;-82
2021/09/08 09:43:45;;;;;;;24.50;19.98;;;;;;;24.18;50.90;101744.59;4995557;28;20038;-84
2021/09/08 09:46:20;;;;;;;25.67;20.13;;;;;;;24.96;49.84;101743.25;5011160;28;20034;-81
2021/09/08 09:48:45;;;;;;;26.35;20.10;;;;;;;25.28;48.55;101745.75;5016985;28;20043;-82
2021/09/08 09:51:12;;;;;;;25.80;18.67;;;;;;;25.47;48.49;101744.13;5008309;28;20053;-82
2021/09/08 09:53:37;;;;;;;26.33;19.38;;;;;;;25.28;50.17;101742.22;4992383;28;20104;-84
2021/09/08 09:56:03;;;;;;;23.95;20.92;;;;;;;24.92;50.16;101741.78;5009137;28;20088;-82
2021/09/08 09:58:29;;;;;;;24.17;20.55;;;;;;;25.19;49.52;101735.81;5034921;28;20289;-80
2021/09/08 10:00:54;;;;;;;30.83;20.48;;;;;;;25.24;49.96;101735.47;4999342;28;20105;-79
2021/09/08 10:03:20;;;;;;;25.10;19.80;;;;;;;25.65;47.77;101731.75;4985859;28;20034;-80
2021/09/08 10:05:45;;;;;;;26.25;18.70;;;;;;;24.94;49.60;101726.44;5013418;28;20044;-80
2021/09/08 10:08:12;;;;;;;28.83;18.17;;;;;;;26.36;46.14;101724.38;5020358;28;20041;-79
2021/09/08 10:10:38;;;;;;;23.23;18.38;;;;;;;25.24;47.32;101727.41;5017836;28;20038;-78
2021/09/08 10:13:21;;;;;;;22.15;17.90;;;;;;;25.32;47.66;101722.19;4988023;28;20212;-78
2021/09/08 10:15:48;;;;;;;31.17;18.48;;;;;;;25.19;47.73;101719.75;4996330;28;20029;-80
2021/09/08 10:18:14;;;;;;;;;;;;;;;26.03;45.46;101713.97;5014997;28;20244;-80
2021/09/08 10:20:42;;;;;;;27.05;16.77;;;;;;;26.44;45.37;101717.28;4997940;28;19952;-80
2021/09/08 10:23:09;;;;;;;21.10;18.05;;;;;;;26.58;45.03;101702.56;4986095;28;20030;-80
2021/09/08 10:25:35;;;;;;;22.33;17.10;;;;;;;25.99;44.64;101707.19;5008538;28;20417;-80
2021/09/08 10:28:00;;;;;;;22.73;17.58;;;;;;;26.45;45.45;101702.03;5020756;28;20049;-80
2021/09/08 10:30:26;;;;;;;18.95;16.70;;;;;;;26.64;45.05;101698.47;5017418;28;20040;-80
2021/09/08 10:32:52;;;;;;;22.90;18.27;;;;;;;26.02;46.01;101690.81;5006431;28;20025;-79
2021/09/08 10:35:18;;;;;;;24.48;18.08;;;;;;;26.29;45.41;101688.38;4988987;28;20072;-78
2021/09/08 10:37:52;;;;;;;19.90;14.90;;;;;;;26.53;44.56;101683.34;5009370;28;20021;-80
2021/09/08 10:40:19;;;;;;;20.17;16.55;;;;;;;25.77;45.78;101684.16;5009938;28;20229;-79
2021/09/08 10:42:48;;;;;;;22.58;17.73;;;;;;;25.93;46.09;101677.41;5008195;28;20037;-79
2021/09/08 10:45:24;;;;;;;23.45;16.83;;;;;;;26.46;43.99;101684.09;5011816;28;20350;-80
2021/09/08 10:47:50;;;;;;;21.27;17.27;;;;;;;26.32;44.78;101675.47;5019313;28;20025;-78
2021/09/08 10:50:16;;;;;;;24.38;15.68;;;;;;;26.37;44.68;101672.38;5009792;28;20030;-79
2021/09/08 10:52:42;;;;;;;24.65;15.07;;;;;;;26.98;43.48;101668.34;5000213;28;20079;-79
2021/09/08 10:55:08;;;;;;;19.55;17.05;;;;;;;25.93;45.05;101666.69;4996045;28;20030;-81
2021/09/08 10:57:47;;;;;;;21.98;16.70;;;;;;;26.59;44.63;101658.56;5022117;28;20032;-81
2021/09/08 11:00:19;;;;;;;21.95;16.60;;;;;;;26.90;44.37;101657.47;5044287;28;20312;-80
2021/09/08 11:02:44;;;;;;;23.83;16.35;;;;;;;26.55;44.99;101657.19;5039653;28;20026;-80
2021/09/08 11:05:10;;;;;;;22.80;16.52;;;;;;;26.71;44.38;101650.38;5025171;28;20095;-80